• Join FlightAware (Why Join?)
  • Login
  • US Flag 
06:43PM EDT


 

Airport Tracker/Info


-or-


 

Live Flight TrackerFlight Track Log ✈ SWA3497 ✈ 12-Jun-2013 ✈ KMCO - KPVD

Flight Track Log - Related Links

Times and Time Zones

All times are in EDT time to prevent confusion due to time zone crossing. See the SWA3497 flight status page for this flight to view local times or setup timezone preferences in your user account.

Time Position Orientation Groundspeed Altitude Reporting Facility
EDT Latitude Longitude Course Direction KTS MPH feet Rate Location/Type
08:54AM 28.4000 -81.3000 150° Southeast 158 182 700  Level Orlando TRACON
08:56AM 28.3500 -81.2667 150° Southeast 217 250 3,000 2,340 Climbing Orlando TRACON
08:57AM 28.3500 -81.2000 90° East 228 262 5,700 2,940 Climbing Orlando TRACON
08:57AM 28.4000 -81.1667 30° Northeast 249 287 8,400 2,460 Climbing Orlando TRACON
08:59AM 28.5231 -81.2128 342° North 321 369 12,100 2,700 Climbing Jacksonville Center
09:00AM 28.6169 -81.2325 350° North 337 388 15,600 3,120 Climbing Jacksonville Center
09:01AM 28.7175 -81.2497 351° North 344 396 18,400 2,760 Climbing Jacksonville Center
09:02AM 28.8242 -81.2669 352° North 365 420 21,200 2,580 Climbing Jacksonville Center
09:03AM 28.9350 -81.2842 352° North 381 438 23,600 2,400 Climbing Jacksonville Center
09:04AM 29.0436 -81.3014 352° North 387 445 26,000 2,100 Climbing Jacksonville Center
09:05AM 29.1608 -81.3114 356° North 406 467 27,900 1,860 Climbing Jacksonville Center
09:06AM 29.2797 -81.3189 357° North 416 479 29,800 1,920 Climbing Jacksonville Center
09:07AM 29.4050 -81.3242 358° North 433 498 31,800 1,920 Climbing Jacksonville Center
09:08AM 29.5200 -81.3342 356° North 428 493 33,700 1,560 Climbing Jacksonville Center
09:09AM 29.6392 -81.3417 357° North 423 487 35,000 1,380 Climbing Jacksonville Center
09:10AM 29.7622 -81.3469 358° North 423 487 36,500 1,680 Climbing Jacksonville Center
09:11AM 29.8794 -81.3547 357° North 423 487 38,400 1,200 Climbing Jacksonville Center
09:12AM 29.9964 -81.3625 357° North 423 487 39,000 300 Climbing Jacksonville Center
09:13AM 30.1156 -81.3678 358° North 423 487 39,000  Level Jacksonville Center
09:14AM 30.2325 -81.3756 357° North 418 481 39,000  Level Jacksonville Center
09:15AM 30.3494 -81.3808 358° North 418 481 39,000  Level Jacksonville Center
09:16AM 30.4789 -81.3886 357° North 423 487 39,000  Level Jacksonville Center
09:17AM 30.5917 -81.3964 357° North 418 481 39,000  Level Jacksonville Center
09:18AM 30.7067 -81.4019 358° North 418 481 39,000  Level Jacksonville Center
09:19AM 30.8147 -81.3589 19° North 401 461 39,000  Level Jacksonville Center
09:20AM 30.9164 -81.2967 28° Northeast 406 467 39,000  Level Jacksonville Center
09:21AM 31.0178 -81.2344 28° Northeast 401 461 39,000  Level Jacksonville Center
09:22AM 31.1214 -81.1697 28° Northeast 406 467 39,000  Level Jacksonville Center
09:23AM 31.2250 -81.1069 27° Northeast 411 473 39,000  Level Jacksonville Center
09:24AM 31.3283 -81.0442 27° Northeast 411 473 39,000  Level Jacksonville Center
09:25AM 31.4317 -80.9714 31° Northeast 417 480 39,000  Level Jacksonville Center
09:26AM 31.5350 -80.9083 27° Northeast 412 474 39,000  Level Jacksonville Center
09:27AM 31.6281 -80.8503 28° Northeast 418 481 39,000  Level Jacksonville Center
09:28AM 31.7439 -80.7794 27° Northeast 418 481 39,000  Level Jacksonville Center
09:29AM 31.8492 -80.7133 28° Northeast 418 481 39,000  Level Jacksonville Center
09:30AM 31.9544 -80.6422 30° Northeast 430 495 39,000  Level Jacksonville Center
09:31AM 32.0619 -80.5783 27° Northeast 430 495 39,000  Level Jacksonville Center
09:32AM 32.1589 -80.5172 28° Northeast 430 495 39,000  Level Jacksonville Center
09:33AM 32.2764 -80.4428 28° Northeast 425 489 39,000  Level Jacksonville Center
09:34AM 32.3794 -80.3711 30° Northeast 425 489 39,000  Level Jacksonville Center
09:35AM 32.4803 -80.2994 31° Northeast 425 489 39,000  Level Jacksonville Center
09:36AM 32.5725 -80.2131 38° Northeast 425 489 39,000  Level Jacksonville Center
09:37AM 32.6708 -80.1261 37° Northeast 425 489 39,000  Level Jacksonville Center
09:38AM 32.7608 -80.0419 38° Northeast 419 482 39,000  Level Jacksonville Center
09:39AM 32.8528 -79.9550 38° Northeast 419 482 39,000  Level Jacksonville Center
09:40AM 32.9444 -79.8678 39° Northeast 419 482 39,000  Level Jacksonville Center
09:41AM 33.0406 -79.7853 36° Northeast 419 482 39,000  Level Jacksonville Center
09:42AM 33.1322 -79.6978 39° Northeast 419 482 39,000  Level Jacksonville Center
09:43AM 33.2261 -79.6125 37° Northeast 419 482 39,000  Level Jacksonville Center
09:44AM 33.3178 -79.5269 38° Northeast 419 482 39,000  Level Jacksonville Center
09:45AM 33.4156 -79.4386 37° Northeast 419 482 39,000  Level Jacksonville Center
09:46AM 33.5050 -79.3506 39° Northeast 425 489 39,000  Level Jacksonville Center
09:47AM 33.6006 -79.2644 37° Northeast 425 489 39,000  Level Jacksonville Center
09:48AM 33.6942 -79.1783 37° Northeast 430 495 39,000  Level Jacksonville Center
09:49AM 33.7894 -79.0867 39° Northeast 430 495 39,000  Level Jacksonville Center
09:50AM 33.8850 -79.0000 37° Northeast 430 495 39,000  Level Jacksonville Center
09:51AM 33.9800 -78.9108 38° Northeast 430 495 39,000  Level Jacksonville Center
09:53AM 34.1147 -78.7850 38° Northeast 434 499 39,000  Level Washington Center
09:54AM 34.2089 -78.6931 39° Northeast 434 499 39,000  Level Washington Center
09:55AM 34.3031 -78.6036 38° Northeast 434 499 39,000  Level Washington Center
09:56AM 34.4075 -78.5044 38° Northeast 429 494 39,000  Level Washington Center
09:57AM 34.5036 -78.4119 38° Northeast 429 494 39,000  Level Washington Center
09:58AM 34.5997 -78.3194 38° Northeast 429 494 39,000  Level Washington Center
09:59AM 34.6958 -78.2267 38° Northeast 429 494 39,000  Level Washington Center
10:00AM 34.7917 -78.1311 39° Northeast 429 494 39,000  Level Washington Center
10:01AM 34.8747 -78.0453 40° Northeast 429 494 39,000  Level Washington Center
10:02AM 34.9728 -77.9492 39° Northeast 434 499 39,000  Level Washington Center
10:03AM 35.0683 -77.8556 39° Northeast 439 505 39,000  Level Washington Center
10:04AM 35.1642 -77.7644 38° Northeast 439 505 39,000  Level Washington Center
10:05AM 35.2575 -77.6678 40° Northeast 439 505 39,000  Level Washington Center
10:06AM 35.3489 -77.5783 39° Northeast 433 498 39,000  Level Washington Center
10:07AM 35.4442 -77.4939 36° Northeast 428 493 39,000  Level Washington Center
10:08AM 35.5372 -77.4119 36° Northeast 418 481 39,000  Level Washington Center
10:09AM 35.6344 -77.3272 35° Northeast 412 474 39,000  Level Washington Center
10:10AM 35.7275 -77.2450 36° Northeast 412 474 39,000  Level Washington Center
10:11AM 35.8244 -77.1622 35° Northeast 412 474 39,000  Level Washington Center
10:12AM 35.9217 -77.0719 37° Northeast 404 465 39,000  Level Washington Center
10:13AM 36.0164 -76.9864 36° Northeast 409 471 39,000  Level Washington Center
10:14AM 36.1114 -76.9058 34° Northeast 409 471 39,000  Level Washington Center
10:15AM 36.2083 -76.8172 36° Northeast 414 476 39,000  Level Washington Center
10:16AM 36.3111 -76.7467 29° Northeast 419 482 39,000  Level Washington Center
10:17AM 36.4142 -76.6761 29° Northeast 419 482 39,000  Level Washington Center
10:18AM 36.5169 -76.6000 31° Northeast 419 482 39,000  Level Washington Center
10:19AM 36.6219 -76.5261 29° Northeast 424 488 39,000  Level Washington Center
10:20AM 36.7225 -76.4497 31° Northeast 424 488 39,000  Level Washington Center
10:21AM 36.8294 -76.3731 30° Northeast 431 496 39,000  Level Washington Center
10:22AM 36.9258 -76.3039 30° Northeast 431 496 39,000  Level Washington Center
10:23AM 37.0306 -76.2267 30° Northeast 437 503 39,000  Level Washington Center
10:24AM 37.1500 -76.1442 29° Northeast 437 503 39,000  Level Washington Center
10:25AM 37.2544 -76.0667 31° Northeast 437 503 39,000  Level Washington Center
10:26AM 37.3592 -75.9917 30° Northeast 437 503 39,000  Level Washington Center
10:27AM 37.4594 -75.9189 30° Northeast 424 488 39,000  Level Washington Center
10:28AM 37.5639 -75.8381 32° Northeast 424 488 39,000  Level Washington Center
10:29AM 37.6703 -75.7569 31° Northeast 430 495 39,000  Level Washington Center
10:30AM 37.7769 -75.6811 29° Northeast 430 495 39,000  Level Washington Center
10:31AM 37.8811 -75.6022 31° Northeast 430 495 39,000  Level Washington Center
10:32AM 37.9875 -75.5258 29° Northeast 430 495 39,000  Level Washington Center
10:33AM 38.0875 -75.4361 35° Northeast 435 501 39,000  Level Washington Center
10:34AM 38.1833 -75.3433 37° Northeast 435 501 39,000  Level Washington Center
10:35AM 38.2747 -75.2425 41° Northeast 435 501 39,000  Level Washington Center
10:36AM 38.3578 -75.1522 40° Northeast 435 501 39,000  Level Washington Center
10:37AM 38.4492 -75.0508 41° Northeast 430 495 39,000  Level Washington Center
10:38AM 38.5447 -74.9547 38° Northeast 430 495 39,000  Level Washington Center
10:39AM 38.6400 -74.8500 41° Northeast 430 495 39,000  Level Washington Center
10:40AM 38.7350 -74.7481 40° Northeast 436 502 39,000  Level Washington Center
10:41AM 38.8325 -74.6483 39° Northeast 441 507 39,000  Level Washington Center
10:42AM 38.9275 -74.5456 40° Northeast 446 513 39,000  Level Washington Center
10:43AM 39.0183 -74.4481 40° Northeast 446 513 39,000  Level Washington Center
10:44AM 39.1111 -74.3478 40° Northeast 441 507 39,000  Level Washington Center
10:45AM 39.2161 -74.2333 40° Northeast 442 509 39,000  Level Washington Center
10:46AM 39.3086 -74.1325 40° Northeast 442 509 39,000  Level Washington Center
10:47AM 39.4011 -74.0311 40° Northeast 442 509 39,000 -480 Level Washington Center
10:48AM 39.5364 -73.8792 41° Northeast 451 519 37,800 -1,260 Descending Boston Center
10:49AM 39.6272 -73.7786 40° Northeast 446 513 35,800 -1,980 Descending Boston Center
10:50AM 39.7222 -73.6753 40° Northeast 439 505 33,900 -1,920 Descending Boston Center
10:51AM 39.8150 -73.5717 41° Northeast 439 505 32,000 -1,500 Descending Boston Center
10:52AM 39.9097 -73.4653 41° Northeast 439 505 31,000 -540 Descending Boston Center
10:53AM 39.9981 -73.3608 42° Northeast 439 505 31,000 -540 Level Boston Center
10:54AM 40.0989 -73.2564 38° Northeast 439 505 30,000 -960 Descending Boston Center
10:55AM 40.1892 -73.1492 42° Northeast 444 511 29,100 -960 Descending Boston Center
10:56AM 40.2900 -73.0386 40° Northeast 449 517 28,100 -1,080 Descending Boston Center
10:57AM 40.3822 -72.9303 42° Northeast 449 517 27,000 -1,140 Descending Boston Center
10:58AM 40.4678 -72.8303 42° Northeast 431 496 25,900 -1,140 Descending Boston Center
10:59AM 40.5578 -72.7350 39° Northeast 418 481 24,800 -1,140 Descending Boston Center
11:00AM 40.6350 -72.6342 45° Northeast 403 464 23,700 -1,440 Descending Boston Center
11:01AM 40.7144 -72.5469 40° Northeast 385 443 22,000 -1,920 Descending Boston Center
11:02AM 40.8000 -72.4511 40° Northeast 378 435 19,900 -2,040 Descending Boston Center
11:03AM 40.8539 -72.3414 57° Northeast 357 411 18,000 -1,920 Descending Boston Center
11:04AM 40.8936 -72.2617 57° Northeast 365 420 16,500 -2,040 Descending Boston Center
11:04AM 40.9206 -72.1983 61° Northeast 368 423 15,400 -1,920 Descending Boston Center
11:05AM 40.9600 -72.1158 58° Northeast 357 411 14,200 -1,800 Descending Boston Center
11:05AM 40.9786 -72.0800 55° Northeast 349 402 13,600 -1,620 Descending Boston Center
11:06AM 41.0117 -72.0111 58° Northeast 349 402 12,600 -1,680 Descending Boston Center
11:06AM 41.0261 -71.9750 62° Northeast 343 395 11,900 -1,620 Descending Boston Center
11:07AM 41.0633 -71.9089 53° Northeast 338 389 11,000 -1,260 Descending Boston Center
11:08AM 41.0819 -71.8728 56° Northeast 326 375 10,500 -1,140 Descending Boston Center
11:08AM 41.1169 -71.8231 47° Northeast 312 359 9,900 -1,440 Descending Boston Center
11:09AM 41.1397 -71.7869 50° Northeast 306 352 9,100 -1,440 Descending Boston Center
11:09AM 41.1686 -71.7369 52° Northeast 297 342 8,500 -1,200 Descending Boston Center
11:10AM 41.1850 -71.7092 52° Northeast 292 336 8,000 -1,440 Descending Boston Center
11:10AM 41.2203 -71.6564 48° Northeast 290 334 7,100 -1,620 Descending Boston Center
11:11AM 41.2367 -71.6258 54° Northeast 285 328 6,400 -1,500 Descending Boston Center
11:11AM 41.2717 -71.5756 47° Northeast 284 327 5,600 -900 Descending Boston Center
11:12AM 41.2944 -71.5394 50° Northeast 266 306 5,400 -540 Descending Boston Center
11:12AM 41.3192 -71.5086 43° Northeast 265 305 5,100 -480 Descending Boston Center
11:13AM 41.3336 -71.4892 45° Northeast 240 276 5,000  Descending Boston Center
11:13AM 41.3561 -71.4528 51° Northeast 228 262 5,100 60 Climbing Boston Center
11:14AM 41.3706 -71.4250 55° Northeast 205 236 5,100  Level Boston Center
11:14AM 41.3953 -71.3942 43° Northeast 204 235 5,100  Level Boston Center
11:15AM 41.4075 -71.3692 57° Northeast 201 231 5,100 -540 Level Boston Center
11:15AM 41.4281 -71.3464 40° Northeast 193 222 4,600 -1,020 Descending Boston Center
11:16AM 41.4425 -71.3214 52° Northeast 182 209 4,100 -1,140 Descending Boston Center
11:16AM 41.4631 -71.2878 51° Northeast 183 211 3,500 -1,020 Descending Boston Center
11:17AM 41.4753 -71.2653 54° Northeast 184 212 3,100 -420 Descending Boston Center
11:17AM 41.4936 -71.2428 43° Northeast 183 211 3,100  Level Boston Center
11:18AM 41.5125 -71.2314 24° Northeast 171 197 3,100  Level Boston Center
11:18AM 41.5375 -71.2364 351° North 145 167 3,100 -120 Level Boston Center
11:19AM 41.5522 -71.2500 325° Northwest 153 176 3,000 -600 Descending Boston Center
11:20AM 41.5881 -71.2828 326° Northwest 155 178 2,300 -540 Descending Boston Center
11:21AM 41.6194 -71.3183 320° Northwest 152 175 2,000 -300 Descending Boston Center
11:22AM 41.6553 -71.3564 322° Northwest 154 177 1,700 -600 Descending Boston Center
11:23AM 41.6828 -71.3867 321° Northwest 136 157 900 -780 Descending Boston Center
11:24AM 41.7142 -71.4139 327° Northwest 133 153 200 -720 Descending Boston Center